Aérodrome :
LOGIN :

S'inscrire | Disclaimer

   EN    FR    IT 

 










Légende :    VFR   VFR Marginal   IFR   IFR Intensif   IFR Très Intensif
Visi : 
Plafond : 
>= 8 km
>= 3000ft
5 à 8 km
1000 à 3000 ft
1500m à 5 km
500 à 1000 ft
800 à 1500m
200 à 500 ft
< 800m
< 200 ft
Symboles :   Orages  Brouillard  Fortes neiges  Fortes précipitations  Vent > 20 kt
SIGMETs :   Divers  Orages  Givrage  Turbulence  Onde Orograph.  Cendres Volcan.






- Altitude de l'aérodrome : 325 ft
- Code IATA : BES


LFRB - Brest

DERNIER METAR :
  • 091300Z AUTO 02009KT 340V050 CAVOK 24/19 Q1017 NOSIG

METARs EXPIRÉS :
  • 091230Z AUTO 02007KT 350V050 CAVOK 24/19 Q1018 NOSIG
  • 091200Z AUTO 34007KT 320V040 CAVOK 24/19 Q1018 NOSIG
  • 091130Z AUTO 01006KT 330V060 CAVOK 23/19 Q1018 NOSIG
  • 091100Z AUTO 01007KT 310V050 9999 FEW013 SCT230 23/19 Q1018 NOSIG
  • 091030Z AUTO 36007KT 320V040 9999 FEW004 SCT210 21/18 Q1018 NOSIG

TAF TAF LFRB
Valide du 09 à 12h jusqu'au 10 à 18h UTC


091100Z 0912/1018 01008KT CAVOK
BECMG 0921/0923 3000 BR OVC005
PROB40
TEMPO 0923/1008 0800 FG VV///
BECMG 1008/1010 CAVOK
PROB30
TEMPO 1012/1018 SHRA SCT040TCU
ATIS : +33 2 98 32 02 71



MET'MAP, la Météo Aéronautique d'un coup d'oeil ! - Copyright ORBIFLY Décembre 2007 - Disclaimer

ORBIFLY MET'MAP TEAM :

Programmation & Développement : Alexandra Zaïnal
Sur une idée originale de : Baudouin d'Aumeries
Assistance à la programmation : Marc-Olivier Méhu
Soutien technique & logistique : Manuel Goepfert

Contact : metmap@orbifly.com




SOURCES & CREDITS :

   NOAA